sensor_id;sensor_type;location;lat;lon;timestamp;pressure;altitude;pressure_sealevel;temperature;humidity
29063;BME280;71206;48.564;-123.458;2024-01-16T00:01:58;102096.33;;;3.46;43.34
29063;BME280;71206;48.564;-123.458;2024-01-16T00:04:25;102089.98;;;3.20;44.73
29063;BME280;71206;48.564;-123.458;2024-01-16T00:06:49;102089.35;;;3.30;44.89
29063;BME280;71206;48.564;-123.458;2024-01-16T00:09:14;102091.29;;;2.86;45.81
29063;BME280;71206;48.564;-123.458;2024-01-16T00:11:41;102091.46;;;3.78;45.18
29063;BME280;71206;48.564;-123.458;2024-01-16T00:14:05;102093.26;;;3.04;46.16
29063;BME280;71206;48.564;-123.458;2024-01-16T00:16:31;102107.42;;;1.88;48.71
29063;BME280;71206;48.564;-123.458;2024-01-16T00:18:56;102109.89;;;2.86;47.30
29063;BME280;71206;48.564;-123.458;2024-01-16T00:21:21;102110.95;;;2.78;46.74
29063;BME280;71206;48.564;-123.458;2024-01-16T00:23:48;102108.49;;;3.28;46.30
29063;BME280;71206;48.564;-123.458;2024-01-16T00:26:20;102109.12;;;3.78;44.93
29063;BME280;71206;48.564;-123.458;2024-01-16T00:28:43;102110.15;;;3.13;46.02
29063;BME280;71206;48.564;-123.458;2024-01-16T00:31:08;102113.93;;;3.72;44.90
29063;BME280;71206;48.564;-123.458;2024-01-16T00:33:29;102113.88;;;3.22;45.77
29063;BME280;71206;48.564;-123.458;2024-01-16T00:35:55;102111.53;;;3.21;46.41
29063;BME280;71206;48.564;-123.458;2024-01-16T00:38:20;102109.56;;;3.32;45.10
29063;BME280;71206;48.564;-123.458;2024-01-16T00:40:46;102113.47;;;2.66;46.12
29063;BME280;71206;48.564;-123.458;2024-01-16T00:43:10;102118.67;;;3.68;44.80
29063;BME280;71206;48.564;-123.458;2024-01-16T00:45:40;102126.83;;;3.07;46.37
29063;BME280;71206;48.564;-123.458;2024-01-16T00:48:01;102129.18;;;3.13;46.04
29063;BME280;71206;48.564;-123.458;2024-01-16T00:50:27;102128.10;;;3.83;45.25
29063;BME280;71206;48.564;-123.458;2024-01-16T00:52:51;102138.62;;;2.39;46.49
29063;BME280;71206;48.564;-123.458;2024-01-16T00:55:17;102136.73;;;2.63;46.81
29063;BME280;71206;48.564;-123.458;2024-01-16T00:57:44;102136.42;;;2.15;47.69
29063;BME280;71206;48.564;-123.458;2024-01-16T01:00:08;102136.64;;;1.89;47.71
29063;BME280;71206;48.564;-123.458;2024-01-16T01:02:32;102136.79;;;2.17;47.41
29063;BME280;71206;48.564;-123.458;2024-01-16T01:05:02;102139.70;;;1.71;48.09
29063;BME280;71206;48.564;-123.458;2024-01-16T01:07:24;102142.84;;;1.27;48.82
29063;BME280;71206;48.564;-123.458;2024-01-16T01:09:49;102143.02;;;1.53;49.22
29063;BME280;71206;48.564;-123.458;2024-01-16T01:12:18;102145.70;;;1.50;48.96
29063;BME280;71206;48.564;-123.458;2024-01-16T01:14:41;102144.19;;;2.21;47.25
29063;BME280;71206;48.564;-123.458;2024-01-16T01:17:05;102141.29;;;2.14;47.51
29063;BME280;71206;48.564;-123.458;2024-01-16T01:19:36;102139.89;;;1.67;49.30
29063;BME280;71206;48.564;-123.458;2024-01-16T01:21:56;102134.03;;;1.58;49.11
29063;BME280;71206;48.564;-123.458;2024-01-16T01:24:23;102132.63;;;1.91;49.18
29063;BME280;71206;48.564;-123.458;2024-01-16T01:26:47;102133.89;;;2.62;48.20
29063;BME280;71206;48.564;-123.458;2024-01-16T01:29:13;102130.47;;;3.22;46.72
29063;BME280;71206;48.564;-123.458;2024-01-16T01:31:38;102126.73;;;1.86;48.50
29063;BME280;71206;48.564;-123.458;2024-01-16T01:34:03;102115.58;;;2.85;47.11
29063;BME280;71206;48.564;-123.458;2024-01-16T01:36:28;102114.22;;;2.09;47.81
29063;BME280;71206;48.564;-123.458;2024-01-16T01:38:57;102104.46;;;2.89;47.00
29063;BME280;71206;48.564;-123.458;2024-01-16T01:41:21;102109.96;;;1.04;49.92
29063;BME280;71206;48.564;-123.458;2024-01-16T01:43:45;102112.08;;;2.05;48.25
29063;BME280;71206;48.564;-123.458;2024-01-16T01:46:13;102106.46;;;2.80;47.38
29063;BME280;71206;48.564;-123.458;2024-01-16T01:48:36;102108.10;;;2.01;49.34
29063;BME280;71206;48.564;-123.458;2024-01-16T01:51:02;102096.08;;;1.64;49.12
29063;BME280;71206;48.564;-123.458;2024-01-16T01:53:27;102090.10;;;1.15;50.10
29063;BME280;71206;48.564;-123.458;2024-01-16T01:55:53;102086.48;;;1.93;48.94
29063;BME280;71206;48.564;-123.458;2024-01-16T01:58:17;102079.43;;;2.33;47.95
29063;BME280;71206;48.564;-123.458;2024-01-16T02:00:43;102072.63;;;2.43;47.59
29063;BME280;71206;48.564;-123.458;2024-01-16T02:03:09;102065.23;;;2.42;47.42
29063;BME280;71206;48.564;-123.458;2024-01-16T02:05:34;102061.92;;;2.63;47.04
29063;BME280;71206;48.564;-123.458;2024-01-16T02:07:59;102070.05;;;1.03;59.75
29063;BME280;71206;48.564;-123.458;2024-01-16T02:10:25;102071.65;;;1.03;54.95
29063;BME280;71206;48.564;-123.458;2024-01-16T02:12:50;102074.02;;;1.43;51.83
29063;BME280;71206;48.564;-123.458;2024-01-16T02:15:16;102071.24;;;1.64;51.75
29063;BME280;71206;48.564;-123.458;2024-01-16T02:17:44;102073.62;;;2.34;50.14
29063;BME280;71206;48.564;-123.458;2024-01-16T02:20:08;102076.56;;;1.44;50.89
29063;BME280;71206;48.564;-123.458;2024-01-16T02:22:33;102073.84;;;1.96;49.80
29063;BME280;71206;48.564;-123.458;2024-01-16T02:25:00;102074.46;;;2.11;49.75
29063;BME280;71206;48.564;-123.458;2024-01-16T02:27:24;102077.24;;;2.27;49.04
29063;BME280;71206;48.564;-123.458;2024-01-16T02:29:50;102075.34;;;1.98;49.91
29063;BME280;71206;48.564;-123.458;2024-01-16T02:32:15;102073.06;;;2.14;49.52
29063;BME280;71206;48.564;-123.458;2024-01-16T02:34:40;102072.51;;;2.42;48.91
29063;BME280;71206;48.564;-123.458;2024-01-16T02:37:06;102076.22;;;2.03;49.28
29063;BME280;71206;48.564;-123.458;2024-01-16T02:39:32;102073.41;;;1.34;50.72
29063;BME280;71206;48.564;-123.458;2024-01-16T02:41:57;102073.90;;;2.03;49.32
29063;BME280;71206;48.564;-123.458;2024-01-16T02:44:22;102073.66;;;2.47;48.67
29063;BME280;71206;48.564;-123.458;2024-01-16T02:46:48;102070.58;;;1.60;49.90
29063;BME280;71206;48.564;-123.458;2024-01-16T02:49:14;102065.25;;;0.93;51.54
29063;BME280;71206;48.564;-123.458;2024-01-16T02:51:39;102063.40;;;0.70;52.48
29063;BME280;71206;48.564;-123.458;2024-01-16T02:54:05;102058.93;;;0.73;52.39
29063;BME280;71206;48.564;-123.458;2024-01-16T02:56:29;102055.49;;;1.70;50.31
29063;BME280;71206;48.564;-123.458;2024-01-16T02:58:54;102052.90;;;0.40;52.99
29063;BME280;71206;48.564;-123.458;2024-01-16T03:01:20;102050.53;;;1.55;51.05
29063;BME280;71206;48.564;-123.458;2024-01-16T03:03:45;102052.53;;;1.86;50.08
29063;BME280;71206;48.564;-123.458;2024-01-16T03:06:20;102051.45;;;1.20;50.75
29063;BME280;71206;48.564;-123.458;2024-01-16T03:08:36;102047.46;;;1.63;49.89
29063;BME280;71206;48.564;-123.458;2024-01-16T03:11:02;102042.98;;;1.16;50.69
29063;BME280;71206;48.564;-123.458;2024-01-16T03:13:27;102043.33;;;1.76;49.84
29063;BME280;71206;48.564;-123.458;2024-01-16T03:15:52;102040.16;;;2.11;49.13
29063;BME280;71206;48.564;-123.458;2024-01-16T03:18:18;102038.77;;;2.28;48.19
29063;BME280;71206;48.564;-123.458;2024-01-16T03:20:43;102041.22;;;1.75;48.30
29063;BME280;71206;48.564;-123.458;2024-01-16T03:23:09;102035.54;;;1.70;48.70
29063;BME280;71206;48.564;-123.458;2024-01-16T03:25:35;102026.05;;;1.46;49.55
29063;BME280;71206;48.564;-123.458;2024-01-16T03:28:01;102022.27;;;1.01;49.64
29063;BME280;71206;48.564;-123.458;2024-01-16T03:30:25;102020.10;;;2.01;48.87
29063;BME280;71206;48.564;-123.458;2024-01-16T03:33:03;102027.00;;;1.88;48.98
29063;BME280;71206;48.564;-123.458;2024-01-16T03:35:17;102025.41;;;1.55;49.42
29063;BME280;71206;48.564;-123.458;2024-01-16T03:37:42;102026.96;;;0.65;52.53
29063;BME280;71206;48.564;-123.458;2024-01-16T03:40:09;102019.74;;;1.73;50.09
29063;BME280;71206;48.564;-123.458;2024-01-16T03:42:34;102019.62;;;1.27;50.28
29063;BME280;71206;48.564;-123.458;2024-01-16T03:44:59;102020.79;;;0.77;51.48
29063;BME280;71206;48.564;-123.458;2024-01-16T03:47:24;102011.58;;;1.51;50.60
29063;BME280;71206;48.564;-123.458;2024-01-16T03:49:50;102010.53;;;1.73;49.56
29063;BME280;71206;48.564;-123.458;2024-01-16T03:52:15;102013.56;;;2.10;48.98
29063;BME280;71206;48.564;-123.458;2024-01-16T03:54:40;102013.23;;;1.17;50.02
29063;BME280;71206;48.564;-123.458;2024-01-16T03:57:05;102014.68;;;1.92;49.37
29063;BME280;71206;48.564;-123.458;2024-01-16T03:59:31;102011.42;;;1.54;49.58
29063;BME280;71206;48.564;-123.458;2024-01-16T04:01:57;102006.94;;;0.83;51.28
29063;BME280;71206;48.564;-123.458;2024-01-16T04:04:22;102012.63;;;-0.32;55.52
29063;BME280;71206;48.564;-123.458;2024-01-16T04:06:48;102006.59;;;-0.47;56.76
29063;BME280;71206;48.564;-123.458;2024-01-16T04:09:13;102001.17;;;-0.60;58.37
29063;BME280;71206;48.564;-123.458;2024-01-16T04:11:39;101998.25;;;0.16;55.57
29063;BME280;71206;48.564;-123.458;2024-01-16T04:14:09;101999.51;;;0.50;54.08
29063;BME280;71206;48.564;-123.458;2024-01-16T04:16:34;102007.37;;;0.82;53.26
29063;BME280;71206;48.564;-123.458;2024-01-16T04:18:57;102008.70;;;1.25;51.70
29063;BME280;71206;48.564;-123.458;2024-01-16T04:21:23;102008.30;;;0.53;53.35
29063;BME280;71206;48.564;-123.458;2024-01-16T04:23:49;102014.53;;;-0.41;56.79
29063;BME280;71206;48.564;-123.458;2024-01-16T04:26:13;102011.41;;;0.44;54.89
29063;BME280;71206;48.564;-123.458;2024-01-16T04:28:39;102009.73;;;0.34;55.32
29063;BME280;71206;48.564;-123.458;2024-01-16T04:31:09;102003.03;;;1.12;52.74
29063;BME280;71206;48.564;-123.458;2024-01-16T04:33:30;102000.85;;;1.26;52.08
29063;BME280;71206;48.564;-123.458;2024-01-16T04:35:56;101998.45;;;1.57;52.00
29063;BME280;71206;48.564;-123.458;2024-01-16T04:38:21;101993.62;;;1.46;51.47
29063;BME280;71206;48.564;-123.458;2024-01-16T04:40:46;101992.85;;;1.49;51.44
29063;BME280;71206;48.564;-123.458;2024-01-16T04:43:15;101997.08;;;1.19;52.03
29063;BME280;71206;48.564;-123.458;2024-01-16T04:45:37;101996.41;;;1.21;51.99
29063;BME280;71206;48.564;-123.458;2024-01-16T04:48:04;101993.19;;;1.26;52.01
29063;BME280;71206;48.564;-123.458;2024-01-16T04:50:27;101988.89;;;0.57;52.89
29063;BME280;71206;48.564;-123.458;2024-01-16T04:52:54;101984.75;;;1.01;52.69
29063;BME280;71206;48.564;-123.458;2024-01-16T04:55:18;101980.95;;;1.18;52.68
29063;BME280;71206;48.564;-123.458;2024-01-16T04:57:44;101978.74;;;0.58;54.59
29063;BME280;71206;48.564;-123.458;2024-01-16T05:00:11;101974.41;;;0.86;54.91
29063;BME280;71206;48.564;-123.458;2024-01-16T05:02:35;101968.11;;;0.73;54.22
29063;BME280;71206;48.564;-123.458;2024-01-16T05:05:02;101959.96;;;0.98;53.38
29063;BME280;71206;48.564;-123.458;2024-01-16T05:07:27;101952.37;;;1.21;53.31
29063;BME280;71206;48.564;-123.458;2024-01-16T05:09:52;101947.80;;;1.44;53.48
29063;BME280;71206;48.564;-123.458;2024-01-16T05:12:17;101951.33;;;0.76;54.99
29063;BME280;71206;48.564;-123.458;2024-01-16T05:14:42;101943.83;;;1.53;53.82
29063;BME280;71206;48.564;-123.458;2024-01-16T05:17:11;101941.83;;;0.99;54.24
29063;BME280;71206;48.564;-123.458;2024-01-16T05:19:33;101935.42;;;1.27;53.58
29063;BME280;71206;48.564;-123.458;2024-01-16T05:21:58;101934.79;;;-0.37;58.81
29063;BME280;71206;48.564;-123.458;2024-01-16T05:24:26;101938.88;;;-0.52;60.67
29063;BME280;71206;48.564;-123.458;2024-01-16T05:26:50;101933.87;;;0.89;56.79
29063;BME280;71206;48.564;-123.458;2024-01-16T05:29:16;101930.30;;;0.71;55.99
29063;BME280;71206;48.564;-123.458;2024-01-16T05:31:41;101941.03;;;-0.67;60.61
29063;BME280;71206;48.564;-123.458;2024-01-16T05:34:05;101928.06;;;0.15;59.43
29063;BME280;71206;48.564;-123.458;2024-01-16T05:36:31;101922.89;;;0.24;58.87
29063;BME280;71206;48.564;-123.458;2024-01-16T05:38:56;101915.60;;;0.55;57.08
29063;BME280;71206;48.564;-123.458;2024-01-16T05:41:22;101918.75;;;0.39;58.10
29063;BME280;71206;48.564;-123.458;2024-01-16T05:43:47;101920.37;;;-0.11;61.34
29063;BME280;71206;48.564;-123.458;2024-01-16T05:46:13;101924.65;;;0.70;57.38
29063;BME280;71206;48.564;-123.458;2024-01-16T05:48:39;101924.66;;;1.27;55.41
29063;BME280;71206;48.564;-123.458;2024-01-16T05:51:06;101926.87;;;0.08;59.06
29063;BME280;71206;48.564;-123.458;2024-01-16T05:53:30;101926.84;;;0.76;56.80
29063;BME280;71206;48.564;-123.458;2024-01-16T05:55:55;101924.94;;;-0.15;59.04
29063;BME280;71206;48.564;-123.458;2024-01-16T05:58:21;101930.07;;;-0.99;63.60
29063;BME280;71206;48.564;-123.458;2024-01-16T06:00:47;101929.92;;;-1.22;67.04
29063;BME280;71206;48.564;-123.458;2024-01-16T06:03:12;101919.60;;;-0.12;63.60
29063;BME280;71206;48.564;-123.458;2024-01-16T06:05:38;101921.58;;;0.65;59.35
29063;BME280;71206;48.564;-123.458;2024-01-16T06:08:03;101920.92;;;0.14;58.00
29063;BME280;71206;48.564;-123.458;2024-01-16T06:10:28;101918.05;;;0.44;58.18
29063;BME280;71206;48.564;-123.458;2024-01-16T06:12:54;101915.44;;;-0.14;60.04
29063;BME280;71206;48.564;-123.458;2024-01-16T06:15:19;101917.88;;;0.46;59.43
29063;BME280;71206;48.564;-123.458;2024-01-16T06:17:45;101915.50;;;0.26;58.28
29063;BME280;71206;48.564;-123.458;2024-01-16T06:20:11;101918.22;;;0.94;57.64
29063;BME280;71206;48.564;-123.458;2024-01-16T06:22:35;101921.16;;;0.40;58.50
29063;BME280;71206;48.564;-123.458;2024-01-16T06:25:00;101914.34;;;0.99;56.37
29063;BME280;71206;48.564;-123.458;2024-01-16T06:27:25;101910.83;;;0.08;57.58
29063;BME280;71206;48.564;-123.458;2024-01-16T06:29:50;101909.84;;;0.67;56.09
29063;BME280;71206;48.564;-123.458;2024-01-16T06:32:16;101910.99;;;0.27;57.33
29063;BME280;71206;48.564;-123.458;2024-01-16T06:34:42;101905.94;;;0.86;56.49
29063;BME280;71206;48.564;-123.458;2024-01-16T06:37:07;101901.32;;;0.71;56.71
29063;BME280;71206;48.564;-123.458;2024-01-16T06:39:33;101895.70;;;0.69;56.31
29063;BME280;71206;48.564;-123.458;2024-01-16T06:42:01;101897.79;;;0.98;55.99
29063;BME280;71206;48.564;-123.458;2024-01-16T06:44:25;101899.58;;;0.80;56.50
29063;BME280;71206;48.564;-123.458;2024-01-16T06:46:49;101892.17;;;1.08;56.02
29063;BME280;71206;48.564;-123.458;2024-01-16T06:49:14;101889.35;;;1.26;54.78
29063;BME280;71206;48.564;-123.458;2024-01-16T06:51:39;101888.09;;;0.95;55.91
29063;BME280;71206;48.564;-123.458;2024-01-16T06:54:05;101885.66;;;0.17;56.69
29063;BME280;71206;48.564;-123.458;2024-01-16T06:56:31;101882.64;;;0.49;57.50
29063;BME280;71206;48.564;-123.458;2024-01-16T06:58:56;101883.21;;;0.21;57.44
29063;BME280;71206;48.564;-123.458;2024-01-16T07:01:22;101878.68;;;0.46;57.50
29063;BME280;71206;48.564;-123.458;2024-01-16T07:03:46;101876.90;;;0.06;58.24
29063;BME280;71206;48.564;-123.458;2024-01-16T07:06:12;101876.30;;;0.35;58.97
29063;BME280;71206;48.564;-123.458;2024-01-16T07:08:36;101872.42;;;0.61;56.80
29063;BME280;71206;48.564;-123.458;2024-01-16T07:11:03;101873.36;;;0.14;58.01
29063;BME280;71206;48.564;-123.458;2024-01-16T07:13:28;101875.34;;;0.70;57.01
29063;BME280;71206;48.564;-123.458;2024-01-16T07:15:54;101872.12;;;0.30;57.05
29063;BME280;71206;48.564;-123.458;2024-01-16T07:18:20;101869.18;;;-0.15;58.50
29063;BME280;71206;48.564;-123.458;2024-01-16T07:20:45;101874.27;;;-0.44;60.35
29063;BME280;71206;48.564;-123.458;2024-01-16T07:23:10;101874.88;;;0.11;57.77
29063;BME280;71206;48.564;-123.458;2024-01-16T07:25:35;101876.85;;;-0.06;58.81
29063;BME280;71206;48.564;-123.458;2024-01-16T07:28:01;101878.29;;;0.18;57.81
29063;BME280;71206;48.564;-123.458;2024-01-16T07:30:26;101878.24;;;0.44;56.80
29063;BME280;71206;48.564;-123.458;2024-01-16T07:32:51;101879.20;;;0.47;57.28
29063;BME280;71206;48.564;-123.458;2024-01-16T07:35:16;101878.59;;;0.05;57.86
29063;BME280;71206;48.564;-123.458;2024-01-16T07:37:42;101876.78;;;-0.31;59.67
29063;BME280;71206;48.564;-123.458;2024-01-16T07:40:09;101874.29;;;0.29;58.01
29063;BME280;71206;48.564;-123.458;2024-01-16T07:42:33;101876.12;;;0.70;56.61
29063;BME280;71206;48.564;-123.458;2024-01-16T07:44:59;101872.43;;;0.51;56.57
29063;BME280;71206;48.564;-123.458;2024-01-16T07:47:24;101865.17;;;0.20;56.21
29063;BME280;71206;48.564;-123.458;2024-01-16T07:49:49;101863.21;;;0.44;56.51
29063;BME280;71206;48.564;-123.458;2024-01-16T07:52:14;101865.36;;;0.21;56.62
29063;BME280;71206;48.564;-123.458;2024-01-16T07:54:41;101863.58;;;0.10;57.58
29063;BME280;71206;48.564;-123.458;2024-01-16T07:57:05;101867.44;;;-0.92;61.95
29063;BME280;71206;48.564;-123.458;2024-01-16T07:59:33;101850.81;;;-0.31;62.69
29063;BME280;71206;48.564;-123.458;2024-01-16T08:01:56;101842.40;;;-0.29;60.35
29063;BME280;71206;48.564;-123.458;2024-01-16T08:04:22;101838.01;;;-0.54;60.37
29063;BME280;71206;48.564;-123.458;2024-01-16T08:06:50;101826.85;;;-0.62;60.84
29063;BME280;71206;48.564;-123.458;2024-01-16T08:09:13;101817.56;;;-0.61;60.74
29063;BME280;71206;48.564;-123.458;2024-01-16T08:11:38;101817.09;;;-0.36;59.23
29063;BME280;71206;48.564;-123.458;2024-01-16T08:14:05;101815.15;;;0.09;58.31
29063;BME280;71206;48.564;-123.458;2024-01-16T08:16:29;101816.27;;;0.49;57.26
29063;BME280;71206;48.564;-123.458;2024-01-16T08:18:54;101814.46;;;0.13;56.82
29063;BME280;71206;48.564;-123.458;2024-01-16T08:21:22;101812.65;;;-0.98;60.54
29063;BME280;71206;48.564;-123.458;2024-01-16T08:23:45;101804.00;;;-0.93;60.31
29063;BME280;71206;48.564;-123.458;2024-01-16T08:26:12;101799.28;;;-0.05;57.37
29063;BME280;71206;48.564;-123.458;2024-01-16T08:28:36;101797.70;;;0.03;57.38
29063;BME280;71206;48.564;-123.458;2024-01-16T08:31:02;101791.99;;;-0.23;58.91
29063;BME280;71206;48.564;-123.458;2024-01-16T08:33:31;101785.76;;;-0.23;59.33
29063;BME280;71206;48.564;-123.458;2024-01-16T08:35:53;101776.12;;;0.20;57.19
29063;BME280;71206;48.564;-123.458;2024-01-16T08:38:19;101771.37;;;0.32;56.30
29063;BME280;71206;48.564;-123.458;2024-01-16T08:40:45;101774.25;;;0.20;55.63
29063;BME280;71206;48.564;-123.458;2024-01-16T08:43:11;101773.65;;;0.39;55.82
29063;BME280;71206;48.564;-123.458;2024-01-16T08:45:36;101777.43;;;0.13;56.04
29063;BME280;71206;48.564;-123.458;2024-01-16T08:48:05;101778.17;;;-0.25;56.38
29063;BME280;71206;48.564;-123.458;2024-01-16T08:50:30;101783.63;;;-1.49;62.34
29063;BME280;71206;48.564;-123.458;2024-01-16T08:52:53;101778.26;;;-0.47;60.17
29063;BME280;71206;48.564;-123.458;2024-01-16T08:55:21;101779.02;;;-0.26;58.55
29063;BME280;71206;48.564;-123.458;2024-01-16T08:57:44;101775.96;;;-0.26;57.48
29063;BME280;71206;48.564;-123.458;2024-01-16T09:00:10;101770.38;;;-0.14;56.80
29063;BME280;71206;48.564;-123.458;2024-01-16T09:02:37;101767.04;;;-0.19;56.99
29063;BME280;71206;48.564;-123.458;2024-01-16T09:05:01;101765.44;;;-0.41;57.42
29063;BME280;71206;48.564;-123.458;2024-01-16T09:07:28;101759.39;;;-0.35;57.37
29063;BME280;71206;48.564;-123.458;2024-01-16T09:09:52;101761.38;;;-0.15;57.42
29063;BME280;71206;48.564;-123.458;2024-01-16T09:12:17;101757.26;;;-0.66;57.45
29063;BME280;71206;48.564;-123.458;2024-01-16T09:14:45;101757.00;;;-0.05;56.24
29063;BME280;71206;48.564;-123.458;2024-01-16T09:17:08;101762.34;;;-0.43;57.52
29063;BME280;71206;48.564;-123.458;2024-01-16T09:19:34;101763.25;;;-1.36;61.61
29063;BME280;71206;48.564;-123.458;2024-01-16T09:22:03;101763.52;;;-1.22;61.75
29063;BME280;71206;48.564;-123.458;2024-01-16T09:24:25;101763.85;;;-1.10;62.40
29063;BME280;71206;48.564;-123.458;2024-01-16T09:26:50;101762.55;;;-1.45;64.08
29063;BME280;71206;48.564;-123.458;2024-01-16T09:29:16;101756.73;;;-1.22;60.94
29063;BME280;71206;48.564;-123.458;2024-01-16T09:31:42;101757.26;;;-0.74;61.83
29063;BME280;71206;48.564;-123.458;2024-01-16T09:34:06;101759.49;;;-1.48;63.18
29063;BME280;71206;48.564;-123.458;2024-01-16T09:36:32;101748.52;;;-1.17;62.90
29063;BME280;71206;48.564;-123.458;2024-01-16T09:38:58;101739.62;;;-1.29;63.27
29063;BME280;71206;48.564;-123.458;2024-01-16T09:41:25;101733.52;;;-0.41;59.26
29063;BME280;71206;48.564;-123.458;2024-01-16T09:43:49;101730.03;;;-0.28;58.70
29063;BME280;71206;48.564;-123.458;2024-01-16T09:46:15;101726.96;;;-0.54;60.61
29063;BME280;71206;48.564;-123.458;2024-01-16T09:48:41;101721.45;;;-0.27;58.41
29063;BME280;71206;48.564;-123.458;2024-01-16T09:51:09;101722.05;;;-0.42;58.02
29063;BME280;71206;48.564;-123.458;2024-01-16T09:53:31;101718.43;;;-0.17;58.99
29063;BME280;71206;48.564;-123.458;2024-01-16T09:56:01;101711.43;;;-0.39;58.60
29063;BME280;71206;48.564;-123.458;2024-01-16T09:58:23;101706.24;;;-0.48;58.40
29063;BME280;71206;48.564;-123.458;2024-01-16T10:00:48;101702.65;;;-0.39;57.72
29063;BME280;71206;48.564;-123.458;2024-01-16T10:03:14;101702.04;;;0.02;56.16
29063;BME280;71206;48.564;-123.458;2024-01-16T10:05:42;101697.75;;;-1.33;60.19
29063;BME280;71206;48.564;-123.458;2024-01-16T10:08:05;101698.72;;;-0.67;59.41
29063;BME280;71206;48.564;-123.458;2024-01-16T10:10:30;101696.09;;;-1.09;60.22
29063;BME280;71206;48.564;-123.458;2024-01-16T10:12:56;101693.08;;;-1.06;60.75
29063;BME280;71206;48.564;-123.458;2024-01-16T10:15:27;101682.48;;;-0.33;57.68
29063;BME280;71206;48.564;-123.458;2024-01-16T10:17:46;101679.23;;;-1.58;62.48
29063;BME280;71206;48.564;-123.458;2024-01-16T10:20:13;101675.46;;;-2.30;65.73
29063;BME280;71206;48.564;-123.458;2024-01-16T10:22:37;101664.20;;;-0.73;60.82
29063;BME280;71206;48.564;-123.458;2024-01-16T10:25:07;101661.84;;;-0.62;58.79
29063;BME280;71206;48.564;-123.458;2024-01-16T10:27:29;101659.67;;;-0.15;58.27
29063;BME280;71206;48.564;-123.458;2024-01-16T10:29:57;101664.95;;;-0.51;58.27
29063;BME280;71206;48.564;-123.458;2024-01-16T10:32:31;101667.56;;;-0.61;58.74
29063;BME280;71206;48.564;-123.458;2024-01-16T10:34:45;101668.08;;;-0.63;59.58
29063;BME280;71206;48.564;-123.458;2024-01-16T10:37:16;101664.38;;;-1.05;59.44
29063;BME280;71206;48.564;-123.458;2024-01-16T10:39:36;101656.98;;;-1.03;58.94
29063;BME280;71206;48.564;-123.458;2024-01-16T10:42:03;101651.34;;;-1.08;59.81
29063;BME280;71206;48.564;-123.458;2024-01-16T10:44:29;101656.30;;;-1.39;61.37
29063;BME280;71206;48.564;-123.458;2024-01-16T10:49:19;101637.48;;;-0.65;58.02
29063;BME280;71206;48.564;-123.458;2024-01-16T10:51:46;101624.66;;;-0.78;60.15
29063;BME280;71206;48.564;-123.458;2024-01-16T10:54:13;101615.80;;;-0.56;57.69
29063;BME280;71206;48.564;-123.458;2024-01-16T10:56:37;101608.51;;;-0.92;60.04
29063;BME280;71206;48.564;-123.458;2024-01-16T10:59:09;101610.02;;;-2.10;64.44
29063;BME280;71206;48.564;-123.458;2024-01-16T11:01:29;101610.82;;;-2.01;68.16
29063;BME280;71206;48.564;-123.458;2024-01-16T11:03:54;101604.31;;;-1.95;68.54
29063;BME280;71206;48.564;-123.458;2024-01-16T11:06:19;101594.23;;;-1.26;64.59
29063;BME280;71206;48.564;-123.458;2024-01-16T11:08:50;101589.78;;;-1.08;60.85
29063;BME280;71206;48.564;-123.458;2024-01-16T11:11:10;101587.43;;;-0.73;59.67
29063;BME280;71206;48.564;-123.458;2024-01-16T11:13:36;101584.28;;;-0.83;59.84
29063;BME280;71206;48.564;-123.458;2024-01-16T11:16:02;101582.06;;;-0.54;59.07
29063;BME280;71206;48.564;-123.458;2024-01-16T11:18:28;101579.33;;;-1.03;58.96
29063;BME280;71206;48.564;-123.458;2024-01-16T11:20:53;101575.65;;;-0.60;58.59
29063;BME280;71206;48.564;-123.458;2024-01-16T11:23:19;101573.62;;;-0.67;57.45
29063;BME280;71206;48.564;-123.458;2024-01-16T11:25:44;101567.24;;;-1.11;60.05
29063;BME280;71206;48.564;-123.458;2024-01-16T11:28:11;101562.97;;;-0.73;59.02
29063;BME280;71206;48.564;-123.458;2024-01-16T11:30:34;101555.59;;;-1.08;59.19
29063;BME280;71206;48.564;-123.458;2024-01-16T11:32:59;101543.40;;;-1.52;62.24
29063;BME280;71206;48.564;-123.458;2024-01-16T11:35:32;101538.11;;;-1.05;63.03
29063;BME280;71206;48.564;-123.458;2024-01-16T11:37:50;101532.41;;;-1.40;61.97
29063;BME280;71206;48.564;-123.458;2024-01-16T11:40:24;101522.49;;;-0.64;60.68
29063;BME280;71206;48.564;-123.458;2024-01-16T11:42:40;101521.57;;;-0.76;61.64
29063;BME280;71206;48.564;-123.458;2024-01-16T11:45:07;101519.85;;;-0.32;60.39
29063;BME280;71206;48.564;-123.458;2024-01-16T11:47:32;101515.11;;;-1.32;63.22
29063;BME280;71206;48.564;-123.458;2024-01-16T11:52:39;101509.12;;;-1.64;66.53
29063;BME280;71206;48.564;-123.458;2024-01-16T11:54:47;101498.22;;;-0.42;62.06
29063;BME280;71206;48.564;-123.458;2024-01-16T11:57:26;101497.67;;;-0.52;60.45
29063;BME280;71206;48.564;-123.458;2024-01-16T11:59:59;101498.01;;;-1.23;63.23
29063;BME280;71206;48.564;-123.458;2024-01-16T12:02:10;101484.08;;;-0.40;59.82
29063;BME280;71206;48.564;-123.458;2024-01-16T12:04:29;101486.35;;;-0.87;62.24
29063;BME280;71206;48.564;-123.458;2024-01-16T12:07:00;101482.54;;;-1.11;63.32
29063;BME280;71206;48.564;-123.458;2024-01-16T12:09:26;101477.33;;;-0.57;60.91
29063;BME280;71206;48.564;-123.458;2024-01-16T12:14:12;101476.56;;;-1.52;63.45
29063;BME280;71206;48.564;-123.458;2024-01-16T12:16:36;101465.91;;;-2.19;67.13
29063;BME280;71206;48.564;-123.458;2024-01-16T12:19:07;101463.75;;;-2.26;70.90
29063;BME280;71206;48.564;-123.458;2024-01-16T12:21:27;101458.38;;;-1.56;65.80
29063;BME280;71206;48.564;-123.458;2024-01-16T12:23:53;101451.13;;;-0.94;62.20